Time;durP1;ratioP1;P1;durP2;ratioP2;P2;SDS_P1;SDS_P2;PMS_P1;PMS_P2;Temp;Humidity;BMP_temperature;BMP_pressure;BME280_temperature;BME280_humidity;BME280_pressure;Samples;Min_cycle;Max_cycle;Signal;HPM_P1;HPM_P2
2023/01/22 00:00:29;;;;;;;30.75;17.92;;;0.60;99.90;;;;;;6284263;22;20018;-73
2023/01/22 00:02:54;;;;;;;29.40;16.20;;;0.90;99.90;;;;;;6258831;22;20022;-74
2023/01/22 00:05:22;;;;;;;24.73;13.27;;;0.60;99.90;;;;;;6258134;22;20057;-73
2023/01/22 00:07:48;;;;;;;26.52;11.85;;;1.20;99.90;;;;;;6309840;22;20007;-73
2023/01/22 00:10:14;;;;;;;17.05;9.88;;;0.60;99.90;;;;;;6256776;22;20385;-74
2023/01/22 00:12:40;;;;;;;18.38;9.85;;;0.50;99.90;;;;;;6258270;22;20222;-73
2023/01/22 00:15:06;;;;;;;19.40;9.90;;;0.50;99.90;;;;;;6283543;22;20202;-74
2023/01/22 00:17:32;;;;;;;19.70;10.00;;;0.60;99.90;;;;;;6233188;22;20042;-73
2023/01/22 00:19:57;;;;;;;16.85;9.95;;;0.60;99.90;;;;;;6257656;22;20019;-73
2023/01/22 00:22:23;;;;;;;16.10;9.52;;;0.60;99.90;;;;;;6283442;22;20197;-74
2023/01/22 00:24:49;;;;;;;16.33;9.38;;;1.50;99.90;;;;;;6233235;22;20015;-72
2023/01/22 00:27:14;;;;;;;19.00;9.70;;;2.00;99.90;;;;;;6258523;22;20015;-74
2023/01/22 00:29:40;;;;;;;16.23;9.13;;;0.50;99.90;;;;;;6258762;22;20068;-73
2023/01/22 00:32:06;;;;;;;17.23;10.00;;;2.10;99.90;;;;;;6283127;22;20038;-72
2023/01/22 00:34:31;;;;;;;20.27;10.27;;;0.30;99.90;;;;;;6233416;22;20270;-73
2023/01/22 00:36:57;;;;;;;20.42;9.82;;;0.70;99.90;;;;;;6283719;22;20080;-73
2023/01/22 00:39:23;;;;;;;17.15;10.00;;;0.60;99.90;;;;;;6259161;22;20062;-71
2023/01/22 00:41:49;;;;;;;16.05;9.18;;;0.10;99.90;;;;;;6284875;22;20393;-71
2023/01/22 00:47:56;;;;;;;18.75;10.45;;;0.20;99.90;;;;;;6043010;23;20020;-74
2023/01/22 00:50:21;;;;;;;17.02;9.18;;;2.00;99.90;;;;;;6214996;22;20019;-73
2023/01/22 00:52:47;;;;;;;18.17;10.43;;;1.00;99.90;;;;;;6285795;22;20015;-72
2023/01/22 00:55:13;;;;;;;20.02;9.95;;;0.60;99.90;;;;;;6234144;22;20003;-74
2023/01/22 00:57:38;;;;;;;21.05;10.60;;;0.60;99.90;;;;;;6260726;22;20035;-73
2023/01/22 01:00:04;;;;;;;16.88;9.85;;;0.10;99.90;;;;;;6285717;22;20078;-71
2023/01/22 01:02:30;;;;;;;20.17;10.15;;;0.00;99.90;;;;;;6259213;22;20060;-71
2023/01/22 01:04:56;;;;;;;19.88;10.20;;;0.10;99.90;;;;;;6259946;22;20011;-72
2023/01/22 01:07:22;;;;;;;19.90;10.07;;;0.00;99.90;;;;;;6260189;22;20241;-72
2023/01/22 01:09:54;;;;;;;21.85;11.10;;;2.00;99.90;;;;;;6302957;22;20015;-72
2023/01/22 01:12:19;;;;;;;20.38;10.55;;;0.00;99.90;;;;;;6265994;22;20023;-72
2023/01/22 01:14:49;;;;;;;18.38;10.75;;;1.50;99.90;;;;;;6291717;22;20045;-73
2023/01/22 01:17:55;;;;;;;18.35;10.30;;;1.00;99.90;;;;;;6268419;22;20007;-74
2023/01/22 01:20:20;;;;;;;18.15;10.13;;;-0.10;99.90;;;;;;6292822;22;20015;-74
2023/01/22 01:22:46;;;;;;;17.27;9.50;;;-0.10;99.90;;;;;;6266200;22;20071;-73
2023/01/22 01:25:12;;;;;;;18.63;9.48;;;1.50;99.90;;;;;;6291825;22;20088;-74
2023/01/22 01:27:38;;;;;;;18.85;9.63;;;2.50;99.90;;;;;;6292657;22;20014;-73
2023/01/22 01:30:04;;;;;;;18.40;9.82;;;0.30;99.90;;;;;;6291391;22;20018;-72
2023/01/22 01:32:29;;;;;;;14.73;8.95;;;-0.10;99.90;;;;;;6292178;22;20011;-74
2023/01/22 01:35:00;;;;;;;19.63;10.82;;;0.80;99.90;;;;;;6292095;22;20044;-73
2023/01/22 01:37:41;;;;;;;17.17;9.60;;;0.00;99.90;;;;;;6295544;22;20007;-73
2023/01/22 01:40:07;;;;;;;20.10;10.02;;;0.10;99.90;;;;;;6318125;22;20092;-72
2023/01/22 01:42:37;;;;;;;15.82;9.95;;;-0.10;99.90;;;;;;6317414;22;20348;-73
2023/01/22 01:45:28;;;;;;;16.55;8.93;;;0.00;99.90;;;;;;6317759;22;20018;-73
2023/01/22 01:48:02;;;;;;;16.90;10.13;;;-0.10;99.90;;;;;;6318183;22;20011;-73
2023/01/22 01:50:28;;;;;;;19.15;9.80;;;-0.10;99.90;;;;;;6292362;22;20017;-73
2023/01/22 01:52:56;;;;;;;18.38;9.77;;;0.00;99.90;;;;;;6292219;22;20345;-73
2023/01/22 01:55:27;;;;;;;17.48;10.13;;;-0.20;99.90;;;;;;6291264;22;20050;-74
2023/01/22 01:57:55;;;;;;;15.70;9.10;;;-0.10;99.90;;;;;;6317880;22;20074;-74
2023/01/22 02:00:21;;;;;;;17.27;10.52;;;-0.30;99.90;;;;;;6291698;22;20091;-73
2023/01/22 02:02:48;;;;;;;18.20;10.38;;;1.80;99.90;;;;;;6290977;22;20015;-73
2023/01/22 02:05:13;;;;;;;18.48;9.43;;;-0.10;99.90;;;;;;6315495;22;20043;-74
2023/01/22 02:07:39;;;;;;;16.95;9.13;;;-0.30;99.90;;;;;;6291209;22;20007;-74
2023/01/22 02:10:05;;;;;;;21.58;10.43;;;-0.30;99.90;;;;;;6312064;22;20074;-73
2023/01/22 02:12:33;;;;;;;18.33;10.43;;;0.00;99.90;;;;;;6312491;22;20022;-73
2023/01/22 02:15:02;;;;;;;18.35;9.82;;;0.50;99.90;;;;;;6311178;22;20308;-72
2023/01/22 02:17:28;;;;;;;17.67;10.00;;;2.00;99.90;;;;;;6311538;22;20014;-73
2023/01/22 02:19:54;;;;;;;16.88;9.50;;;1.80;99.90;;;;;;6284380;22;20057;-73
2023/01/22 02:22:28;;;;;;;15.57;8.82;;;0.10;99.90;;;;;;6284181;22;20007;-73
2023/01/22 02:24:53;;;;;;;15.90;8.63;;;0.50;99.90;;;;;;6286475;22;20011;-72
2023/01/22 02:27:19;;;;;;;18.90;9.30;;;0.50;99.90;;;;;;6312051;22;20011;-72
2023/01/22 02:29:48;;;;;;;17.95;7.97;;;2.30;99.90;;;;;;6312136;22;20070;-74
2023/01/22 02:32:14;;;;;;;14.70;8.35;;;0.60;99.90;;;;;;6284744;22;20061;-73
2023/01/22 02:34:40;;;;;;;14.45;7.45;;;2.00;99.90;;;;;;6286594;22;20007;-73
2023/01/22 02:37:05;;;;;;;14.43;8.05;;;2.30;99.90;;;;;;6311902;22;20007;-73
2023/01/22 02:39:31;;;;;;;11.00;6.10;;;0.70;99.90;;;;;;6312696;22;20007;-72
2023/01/22 02:41:58;;;;;;;11.85;6.30;;;0.80;99.90;;;;;;6286366;22;20019;-73
2023/01/22 02:44:23;;;;;;;11.30;6.80;;;0.90;99.90;;;;;;6311128;22;20015;-73
2023/01/22 02:46:49;;;;;;;11.15;6.43;;;0.80;99.90;;;;;;6260941;22;20094;-73
2023/01/22 02:49:14;;;;;;;11.82;6.28;;;1.90;99.90;;;;;;6313000;22;20385;-73
2023/01/22 02:51:40;;;;;;;8.75;5.10;;;1.00;99.90;;;;;;6261116;22;20019;-73
2023/01/22 02:54:06;;;;;;;11.23;5.65;;;1.80;99.90;;;;;;6311932;22;20058;-73
2023/01/22 02:56:35;;;;;;;12.15;6.00;;;2.80;99.90;;;;;;6311922;22;20014;-74
2023/01/22 02:59:02;;;;;;;11.48;5.75;;;2.80;99.90;;;;;;6311390;22;20061;-74
2023/01/22 03:01:28;;;;;;;9.20;4.95;;;1.40;99.90;;;;;;6310629;22;20036;-73
2023/01/22 03:04:10;;;;;;;7.60;4.13;;;2.20;99.90;;;;;;6258888;22;20011;-73
2023/01/22 03:06:41;;;;;;;11.55;5.82;;;1.20;99.90;;;;;;6311742;22;20025;-74
2023/01/22 03:09:08;;;;;;;8.75;5.20;;;1.20;99.90;;;;;;6307637;22;20027;-74
2023/01/22 03:11:35;;;;;;;8.75;5.65;;;2.20;99.90;;;;;;6235254;22;20027;-74
2023/01/22 03:22:15;;;;;;;8.85;5.13;;;2.40;99.90;;;;;;6285341;22;20019;-73
2023/01/22 03:24:49;;;;;;;9.00;4.88;;;1.30;99.90;;;;;;6286288;22;20015;-73
2023/01/22 03:27:18;;;;;;;11.40;5.57;;;1.20;99.90;;;;;;6285583;22;20301;-73
2023/01/22 03:29:44;;;;;;;9.70;5.00;;;1.10;99.90;;;;;;6260328;22;20213;-73
2023/01/22 03:32:10;;;;;;;8.70;5.07;;;1.20;99.90;;;;;;6285240;22;20015;-73
2023/01/22 03:34:36;;;;;;;7.20;4.60;;;3.20;99.90;;;;;;6284783;22;20297;-73
2023/01/22 03:37:01;;;;;;;7.90;4.30;;;1.80;99.90;;;;;;6260264;22;20015;-72
2023/01/22 03:39:29;;;;;;;10.60;4.70;;;2.70;99.90;;;;;;6234306;22;20056;-72
2023/01/22 03:41:55;;;;;;;5.95;4.43;;;2.80;99.90;;;;;;6261078;22;20061;-73
2023/01/22 03:44:20;;;;;;;6.40;4.28;;;1.10;99.90;;;;;;6258993;22;20007;-73
2023/01/22 03:46:46;;;;;;;6.38;4.47;;;1.10;99.90;;;;;;6286196;22;20035;-73
2023/01/22 03:49:13;;;;;;;7.32;4.45;;;2.40;99.90;;;;;;6260183;22;20106;-72
2023/01/22 03:51:39;;;;;;;7.40;4.40;;;2.60;99.90;;;;;;6236127;22;20537;-73
2023/01/22 03:54:04;;;;;;;6.90;4.22;;;1.90;99.90;;;;;;6285779;22;20015;-73
2023/01/22 03:56:30;;;;;;;7.60;4.40;;;2.50;99.90;;;;;;6286176;22;20015;-73
2023/01/22 03:59:07;;;;;;;6.78;4.28;;;1.70;99.90;;;;;;6285946;22;20021;-74
2023/01/22 04:01:35;;;;;;;9.82;4.40;;;1.10;99.90;;;;;;6260489;22;20058;-73
2023/01/22 04:04:02;;;;;;;6.57;4.45;;;1.30;99.90;;;;;;6258571;22;20078;-73
2023/01/22 04:06:29;;;;;;;7.03;4.43;;;1.10;99.90;;;;;;6258925;22;20073;-73
2023/01/22 04:08:55;;;;;;;7.93;5.10;;;1.70;99.90;;;;;;6262490;22;20007;-74
2023/01/22 04:11:21;;;;;;;7.35;4.40;;;1.20;99.90;;;;;;6316555;22;20054;-73
2023/01/22 04:13:47;;;;;;;6.72;3.80;;;1.60;99.90;;;;;;6316526;22;20006;-73
2023/01/22 04:16:14;;;;;;;8.98;4.40;;;2.00;99.90;;;;;;6290788;22;20367;-74
2023/01/22 04:18:40;;;;;;;8.85;4.80;;;3.00;99.90;;;;;;6291357;22;20034;-74
2023/01/22 04:21:07;;;;;;;6.30;4.07;;;1.30;99.90;;;;;;6289201;22;20011;-74
2023/01/22 04:23:33;;;;;;;6.68;4.70;;;2.10;99.90;;;;;;6316441;22;20007;-75
2023/01/22 04:25:58;;;;;;;5.35;4.28;;;2.50;99.90;;;;;;6290035;22;20060;-75
2023/01/22 04:28:24;;;;;;;7.53;4.55;;;3.00;99.90;;;;;;6290916;22;20026;-74
2023/01/22 04:30:52;;;;;;;8.10;4.50;;;2.60;99.90;;;;;;6316233;22;20074;-74
2023/01/22 04:33:18;;;;;;;6.60;3.88;;;1.30;99.90;;;;;;6316465;22;20017;-74
2023/01/22 04:35:43;;;;;;;8.63;4.00;;;2.70;99.90;;;;;;6289364;22;20306;-74
2023/01/22 04:38:12;;;;;;;7.80;3.83;;;3.20;99.90;;;;;;6290925;22;20007;-75
2023/01/22 04:40:38;;;;;;;7.05;4.63;;;3.10;99.90;;;;;;6317498;22;20010;-75
2023/01/22 04:43:05;;;;;;;7.28;4.40;;;1.40;99.90;;;;;;6290487;22;20018;-74
2023/01/22 04:48:41;;;;;;;9.63;4.30;;;1.40;99.90;;;;;;6316952;22;20072;-74
2023/01/22 04:51:07;;;;;;;7.07;4.55;;;1.30;99.90;;;;;;6290968;22;20043;-75
2023/01/22 04:53:32;;;;;;;7.03;3.78;;;1.50;99.90;;;;;;6290622;22;20014;-74
2023/01/22 04:55:58;;;;;;;8.32;4.05;;;1.40;99.90;;;;;;6316577;22;20032;-75
2023/01/22 04:58:24;;;;;;;7.13;4.30;;;1.40;99.90;;;;;;6290850;22;20092;-75
2023/01/22 05:00:49;;;;;;;8.32;4.60;;;1.40;99.90;;;;;;6265128;22;20025;-74
2023/01/22 05:03:15;;;;;;;8.50;4.70;;;2.10;99.90;;;;;;6315850;22;20018;-75
2023/01/22 05:05:41;;;;;;;7.35;3.70;;;1.80;99.90;;;;;;6290807;22;20010;-74
2023/01/22 05:08:07;;;;;;;5.45;3.85;;;2.00;99.90;;;;;;6316374;22;20011;-75
2023/01/22 05:10:32;;;;;;;5.53;3.72;;;3.00;99.90;;;;;;6311406;22;20015;-75
2023/01/22 05:13:02;;;;;;;6.45;3.63;;;1.20;99.90;;;;;;6285301;22;20316;-75
2023/01/22 05:15:28;;;;;;;6.60;4.25;;;3.10;99.90;;;;;;6285956;22;20016;-75
2023/01/22 05:17:53;;;;;;;6.28;4.50;;;2.40;99.90;;;;;;6258843;22;20033;-74
2023/01/22 05:20:19;;;;;;;5.32;3.47;;;1.30;99.90;;;;;;6310854;22;20066;-75
2023/01/22 05:22:45;;;;;;;5.82;4.30;;;2.40;99.90;;;;;;6285502;22;20011;-74
2023/01/22 05:25:11;;;;;;;5.90;4.38;;;1.20;99.90;;;;;;6286338;22;20018;-76
2023/01/22 05:27:37;;;;;;;6.00;4.15;;;1.20;99.90;;;;;;6312533;22;20019;-75
2023/01/22 05:30:04;;;;;;;6.30;4.53;;;1.70;99.90;;;;;;6313252;22;20019;-74
2023/01/22 05:32:30;;;;;;;6.70;4.40;;;1.20;99.90;;;;;;6287532;22;20039;-74
2023/01/22 05:34:56;;;;;;;7.20;4.75;;;2.70;99.90;;;;;;6287211;22;20048;-74
2023/01/22 05:37:21;;;;;;;7.90;4.40;;;3.40;99.90;;;;;;6286596;22;20007;-74
2023/01/22 05:39:47;;;;;;;6.20;5.00;;;1.10;99.90;;;;;;6261934;22;20015;-74
2023/01/22 05:42:14;;;;;;;7.55;4.50;;;3.30;99.90;;;;;;6261591;22;20019;-74
2023/01/22 05:44:40;;;;;;;6.93;4.15;;;2.70;99.90;;;;;;6312253;22;20019;-74
2023/01/22 05:47:07;;;;;;;6.88;4.90;;;2.70;99.90;;;;;;6287050;22;20069;-74
2023/01/22 05:49:32;;;;;;;7.43;4.78;;;2.90;99.90;;;;;;6311522;22;20018;-74
2023/01/22 05:51:58;;;;;;;6.90;4.72;;;1.10;99.90;;;;;;6262102;22;20198;-75
2023/01/22 05:54:24;;;;;;;11.50;5.75;;;2.30;99.90;;;;;;6312870;22;20029;-73
2023/01/22 05:56:49;;;;;;;7.38;4.65;;;2.80;99.90;;;;;;6286930;22;20008;-74
2023/01/22 05:59:15;;;;;;;6.88;4.40;;;2.50;99.90;;;;;;6261524;22;20039;-74
2023/01/22 06:01:41;;;;;;;8.43;4.65;;;2.00;99.90;;;;;;6287856;22;20019;-74
2023/01/22 06:04:06;;;;;;;7.13;4.38;;;1.00;99.90;;;;;;6287203;22;20043;-75
2023/01/22 06:06:32;;;;;;;6.63;4.80;;;2.60;99.90;;;;;;6286074;22;20045;-76
2023/01/22 06:08:58;;;;;;;9.40;4.85;;;1.90;99.90;;;;;;6286816;22;20072;-74
2023/01/22 06:11:24;;;;;;;8.02;5.15;;;1.00;99.90;;;;;;6262822;22;20054;-75
2023/01/22 06:13:50;;;;;;;6.18;4.88;;;1.30;99.90;;;;;;6317632;22;20072;-75
2023/01/22 06:16:16;;;;;;;7.78;5.22;;;1.00;99.90;;;;;;6317565;22;20007;-75
2023/01/22 06:18:42;;;;;;;9.80;5.30;;;2.90;99.90;;;;;;6291426;22;20437;-75
2023/01/22 06:21:08;;;;;;;8.15;4.90;;;-0.50;99.90;;;;;;6291903;22;20018;-75
2023/01/22 06:23:34;;;;;;;8.68;5.22;;;1.60;99.90;;;;;;6291407;22;20018;-74
2023/01/22 06:26:01;;;;;;;8.00;5.80;;;1.80;99.90;;;;;;6317931;22;20179;-74
2023/01/22 06:28:28;;;;;;;10.30;6.43;;;0.90;99.90;;;;;;6264213;22;20026;-75
2023/01/22 06:31:04;;;;;;;8.38;4.75;;;1.80;99.90;;;;;;6318016;22;20011;-74
2023/01/22 06:33:33;;;;;;;11.77;5.55;;;0.90;99.90;;;;;;6292328;22;20062;-74
2023/01/22 06:35:59;;;;;;;7.95;5.25;;;0.90;99.90;;;;;;6290634;22;20034;-74
2023/01/22 06:38:24;;;;;;;7.20;5.47;;;0.80;99.90;;;;;;6291523;22;20014;-74
2023/01/22 06:40:55;;;;;;;7.45;5.30;;;0.80;99.90;;;;;;6292284;22;20018;-74
2023/01/22 06:43:21;;;;;;;8.43;5.38;;;0.80;99.90;;;;;;6290540;22;20186;-73
2023/01/22 06:45:47;;;;;;;7.43;4.90;;;0.90;99.90;;;;;;6292457;22;20463;-74
2023/01/22 06:48:12;;;;;;;8.15;5.57;;;0.90;99.90;;;;;;6318006;22;20074;-74
2023/01/22 06:50:38;;;;;;;11.38;6.43;;;3.00;99.90;;;;;;6317378;22;20014;-74
2023/01/22 06:53:07;;;;;;;12.65;5.70;;;0.80;99.90;;;;;;6317256;22;20010;-74
2023/01/22 06:55:32;;;;;;;8.60;6.00;;;0.80;99.90;;;;;;6317123;22;20007;-74
2023/01/22 06:57:58;;;;;;;7.28;4.63;;;1.20;99.90;;;;;;6265707;22;20336;-74
2023/01/22 07:00:24;;;;;;;8.85;6.28;;;0.90;99.90;;;;;;6316956;22;20044;-75
2023/01/22 07:02:51;;;;;;;10.05;6.03;;;0.70;99.90;;;;;;6265618;22;20205;-75
2023/01/22 07:05:18;;;;;;;8.40;5.63;;;0.70;99.90;;;;;;6292398;22;20017;-74
2023/01/22 07:07:46;;;;;;;7.90;5.45;;;0.80;99.90;;;;;;6265409;22;20042;-73
2023/01/22 07:10:11;;;;;;;9.43;6.53;;;0.80;99.90;;;;;;6316538;22;20014;-73
2023/01/22 07:12:37;;;;;;;8.80;5.97;;;0.70;99.90;;;;;;6310044;22;20194;-73
2023/01/22 07:15:05;;;;;;;8.63;6.30;;;0.80;99.90;;;;;;6309876;22;20174;-75
2023/01/22 07:17:31;;;;;;;8.77;5.95;;;0.80;99.90;;;;;;6284631;22;20018;-73
2023/01/22 07:19:57;;;;;;;9.02;6.72;;;2.50;99.90;;;;;;6310260;22;20042;-75
2023/01/22 07:22:51;;;;;;;11.75;7.15;;;1.90;99.90;;;;;;6310368;22;20061;-74
2023/01/22 07:25:17;;;;;;;10.45;6.07;;;0.80;99.90;;;;;;6289343;22;20015;-74
2023/01/22 07:27:43;;;;;;;10.38;6.65;;;2.00;99.90;;;;;;6285883;22;20034;-74
2023/01/22 07:30:09;;;;;;;10.50;6.82;;;0.70;99.90;;;;;;6286149;22;20198;-74
2023/01/22 07:32:35;;;;;;;9.32;6.22;;;0.70;99.90;;;;;;6285757;22;20265;-74
2023/01/22 07:35:01;;;;;;;8.52;6.47;;;1.40;99.90;;;;;;6312037;22;20022;-74
2023/01/22 07:37:29;;;;;;;8.35;6.80;;;0.80;99.90;;;;;;6285507;22;20075;-75
2023/01/22 07:40:05;;;;;;;10.95;6.72;;;0.60;99.90;;;;;;6262248;22;20025;-74
2023/01/22 07:42:31;;;;;;;11.98;6.75;;;0.70;99.90;;;;;;6259349;22;20019;-74
2023/01/22 07:44:57;;;;;;;7.97;6.03;;;1.10;99.90;;;;;;6308831;22;20332;-74
2023/01/22 07:47:23;;;;;;;15.45;6.60;;;0.70;99.90;;;;;;6284851;22;20096;-75
2023/01/22 07:49:48;;;;;;;10.27;7.07;;;0.70;99.90;;;;;;6310556;22;20026;-75
2023/01/22 07:52:14;;;;;;;8.15;6.13;;;0.70;99.90;;;;;;6311252;22;20007;-75
2023/01/22 07:54:40;;;;;;;11.02;7.35;;;0.70;99.90;;;;;;6284962;22;20324;-74
2023/01/22 07:57:05;;;;;;;10.35;7.50;;;0.70;99.90;;;;;;6260185;22;20007;-75
2023/01/22 07:59:31;;;;;;;9.57;7.00;;;1.50;99.90;;;;;;6284768;22;20007;-74
2023/01/22 08:01:57;;;;;;;9.40;6.63;;;1.70;99.90;;;;;;6311652;22;20034;-75
2023/01/22 08:04:23;;;;;;;6.35;5.57;;;2.60;99.90;;;;;;6259442;22;20022;-74
2023/01/22 08:06:49;;;;;;;9.45;6.78;;;0.80;99.90;;;;;;6310043;22;20312;-73
2023/01/22 08:09:22;;;;;;;9.45;5.88;;;0.70;99.90;;;;;;6284751;22;20007;-75
2023/01/22 08:11:47;;;;;;;9.40;6.40;;;2.70;99.90;;;;;;6284541;22;20335;-74
2023/01/22 08:14:21;;;;;;;8.45;5.43;;;2.80;99.90;;;;;;6285294;22;20024;-74
2023/01/22 08:16:47;;;;;;;8.90;5.90;;;0.70;99.90;;;;;;6259055;22;20007;-75
2023/01/22 08:19:13;;;;;;;11.18;5.85;;;2.60;99.90;;;;;;6258062;22;20338;-75
2023/01/22 08:21:38;;;;;;;10.52;5.90;;;2.80;99.90;;;;;;6282407;22;20034;-73
2023/01/22 08:24:05;;;;;;;6.07;4.22;;;2.90;99.90;;;;;;6284104;22;20050;-74
2023/01/22 08:26:30;;;;;;;6.40;4.78;;;0.70;99.90;;;;;;6311160;22;20045;-74
2023/01/22 08:29:32;;;;;;;8.85;5.80;;;2.20;99.90;;;;;;6281763;22;20019;-74
2023/01/22 08:32:01;;;;;;;10.05;5.85;;;0.60;99.90;;;;;;6276376;22;20023;-74
2023/01/22 08:34:26;;;;;;;8.18;5.07;;;-1.30;99.90;;;;;;6283619;22;20030;-75
2023/01/22 08:39:59;;;;;;;8.38;5.65;;;0.60;99.90;;;;;;6269388;22;20026;-75
2023/01/22 08:42:25;;;;;;;;;;;2.90;99.90;;;;;;6284968;22;20213;-75
2023/01/22 08:44:51;;;;;;;8.43;5.20;;;1.90;99.90;;;;;;6308722;22;19915;-76
2023/01/22 08:47:19;;;;;;;12.60;5.45;;;0.60;99.90;;;;;;6260146;22;20070;-75
2023/01/22 08:49:45;;;;;;;8.85;5.72;;;2.20;99.90;;;;;;6310037;22;20279;-73
2023/01/22 08:52:11;;;;;;;11.30;5.45;;;1.90;99.90;;;;;;6303883;22;20294;-72
2023/01/22 08:54:36;;;;;;;7.55;5.32;;;0.60;99.90;;;;;;6305894;22;20266;-72
2023/01/22 08:57:25;;;;;;;7.75;5.05;;;1.40;99.90;;;;;;6282476;22;20246;-76
2023/01/22 08:59:54;;;;;;;8.63;5.50;;;0.70;99.90;;;;;;6280253;22;20121;-74
2023/01/22 09:02:19;;;;;;;7.80;4.88;;;0.60;99.90;;;;;;6283727;22;20018;-77
2023/01/22 09:04:48;;;;;;;9.70;5.47;;;0.70;99.90;;;;;;6284558;22;20026;-75
2023/01/22 09:10:43;;;;;;;7.38;5.10;;;2.30;99.90;;;;;;6309539;22;20015;-74
2023/01/22 09:13:09;;;;;;;8.15;5.45;;;1.70;99.90;;;;;;6284023;22;20023;-76
2023/01/22 09:15:38;;;;;;;6.38;4.22;;;0.70;99.90;;;;;;6282665;22;20082;-75
2023/01/22 09:18:04;;;;;;;10.30;5.30;;;0.80;99.90;;;;;;6283839;22;20015;-75
2023/01/22 09:20:29;;;;;;;8.00;5.93;;;0.80;99.90;;;;;;6306980;22;20470;-75
2023/01/22 09:22:55;;;;;;;9.82;5.28;;;0.80;99.90;;;;;;6285648;22;20014;-75
2023/01/22 09:25:21;;;;;;;8.02;5.53;;;2.40;99.90;;;;;;6283360;22;20019;-73
2023/01/22 09:28:19;;;;;;;11.52;5.50;;;3.10;99.90;;;;;;6283184;22;20015;-74
2023/01/22 09:30:45;;;;;;;7.78;5.53;;;0.70;99.90;;;;;;6255823;22;20282;-74
2023/01/22 09:33:10;;;;;;;9.93;5.72;;;0.80;99.90;;;;;;6285175;22;20079;-76
2023/01/22 09:35:36;;;;;;;8.30;5.85;;;1.30;99.90;;;;;;6309093;22;20074;-76
2023/01/22 09:38:04;;;;;;;8.95;4.85;;;0.90;99.90;;;;;;6258137;22;20046;-75
2023/01/22 09:40:40;;;;;;;7.93;5.20;;;1.20;99.90;;;;;;6284276;22;20061;-75
2023/01/22 09:43:34;;;;;;;11.00;5.85;;;1.00;99.90;;;;;;6310503;22;20060;-76
2023/01/22 09:46:30;;;;;;;7.20;5.40;;;1.10;99.90;;;;;;6309626;22;20175;-75
2023/01/22 09:50:04;;;;;;;9.63;6.18;;;1.10;99.90;;;;;;6248527;22;20069;-75
2023/01/22 09:52:38;;;;;;;8.07;5.40;;;2.10;99.90;;;;;;6255081;22;20183;-73
2023/01/22 09:55:12;;;;;;;11.25;5.78;;;2.50;99.90;;;;;;6284194;22;20011;-74
2023/01/22 09:57:43;;;;;;;9.15;6.18;;;1.00;99.90;;;;;;6309050;22;20043;-76
2023/01/22 10:00:22;;;;;;;9.65;6.15;;;1.60;99.90;;;;;;6283904;22;20034;-76
2023/01/22 10:02:55;;;;;;;8.70;6.68;;;1.20;99.90;;;;;;6284630;22;20065;-75
2023/01/22 10:05:38;;;;;;;9.77;7.07;;;2.80;99.90;;;;;;6310084;22;20022;-75
2023/01/22 10:08:12;;;;;;;8.77;6.40;;;2.30;99.90;;;;;;6308554;22;20046;-74
2023/01/22 10:10:38;;;;;;;9.63;5.85;;;1.30;99.90;;;;;;6307909;22;20012;-75
2023/01/22 10:13:38;;;;;;;7.97;6.00;;;1.30;99.90;;;;;;6284313;22;20015;-76
2023/01/22 10:16:04;;;;;;;10.15;6.78;;;1.30;99.90;;;;;;6309239;22;20076;-76
2023/01/22 10:18:42;;;;;;;9.73;6.30;;;1.40;99.90;;;;;;6283577;22;20008;-74
2023/01/22 10:21:26;;;;;;;8.68;6.13;;;1.40;99.90;;;;;;6309453;22;20102;-75
2023/01/22 10:23:54;;;;;;;9.20;6.75;;;1.40;99.90;;;;;;6284388;22;20037;-74
2023/01/22 10:26:35;;;;;;;11.05;6.07;;;1.50;99.90;;;;;;6306783;22;20096;-75
2023/01/22 10:29:11;;;;;;;10.73;6.50;;;3.40;99.90;;;;;;6308914;22;20062;-74
2023/01/22 10:31:44;;;;;;;10.63;6.57;;;1.70;99.90;;;;;;6283179;22;20015;-76
2023/01/22 10:34:26;;;;;;;7.85;5.38;;;1.80;99.90;;;;;;6282808;22;20014;-76
2023/01/22 10:36:58;;;;;;;8.38;5.88;;;1.50;99.90;;;;;;6259861;22;20057;-73
2023/01/22 10:39:47;;;;;;;7.75;6.00;;;1.60;99.90;;;;;;6282821;22;20034;-73
2023/01/22 10:42:24;;;;;;;10.35;5.68;;;4.70;99.90;;;;;;6262566;22;20027;-72
2023/01/22 10:45:14;;;;;;;8.45;5.82;;;3.30;99.90;;;;;;6308947;22;20026;-76
2023/01/22 10:47:45;;;;;;;9.88;6.63;;;1.60;99.90;;;;;;6280860;22;20239;-74
2023/01/22 10:50:15;;;;;;;9.98;6.10;;;3.70;99.90;;;;;;6281002;22;20019;-75
2023/01/22 10:52:50;;;;;;;9.93;7.18;;;1.70;99.90;;;;;;6307191;22;20345;-75
2023/01/22 10:55:24;;;;;;;7.22;5.53;;;2.90;99.90;;;;;;6280402;22;20085;-74
2023/01/22 10:58:25;;;;;;;8.82;6.55;;;1.70;99.90;;;;;;6280731;22;20015;-75
2023/01/22 11:01:24;;;;;;;7.72;5.78;;;2.70;99.90;;;;;;6305611;22;20011;-74
2023/01/22 11:07:44;;;;;;;9.00;6.25;;;1.10;99.90;;;;;;6235986;22;20038;-75
2023/01/22 11:10:38;;;;;;;9.25;6.07;;;2.50;99.90;;;;;;6283374;22;20019;-74
2023/01/22 11:13:19;;;;;;;7.65;5.80;;;2.30;99.90;;;;;;6272639;22;20027;-73
2023/01/22 11:15:52;;;;;;;8.27;6.00;;;1.70;99.90;;;;;;6256986;22;20068;-72
2023/01/22 11:18:49;;;;;;;12.13;6.03;;;2.40;99.90;;;;;;6258432;22;20011;-73
2023/01/22 11:21:37;;;;;;;12.50;6.18;;;1.90;99.90;;;;;;6231409;22;20021;-75
2023/01/22 11:24:11;;;;;;;11.05;6.13;;;2.70;99.90;;;;;;6282093;22;20060;-74
2023/01/22 11:26:49;;;;;;;8.50;6.45;;;4.10;99.90;;;;;;6255424;22;20305;-74
2023/01/22 11:29:23;;;;;;;10.15;5.97;;;2.00;99.90;;;;;;6281143;22;20007;-74
2023/01/22 11:32:00;;;;;;;10.10;6.68;;;2.10;99.90;;;;;;6280015;22;20019;-75
2023/01/22 11:35:04;;;;;;;10.65;6.53;;;2.20;99.90;;;;;;6255812;22;20035;-76
2023/01/22 11:37:41;;;;;;;7.53;6.03;;;2.10;99.90;;;;;;6255375;22;20063;-74
2023/01/22 11:40:24;;;;;;;11.15;6.20;;;2.20;99.90;;;;;;6281576;22;20019;-76
2023/01/22 11:42:56;;;;;;;8.00;6.20;;;2.20;99.90;;;;;;6255069;22;20042;-77
2023/01/22 11:45:53;;;;;;;8.60;6.00;;;3.50;99.90;;;;;;6256018;22;20171;-77
2023/01/22 11:49:08;;;;;;;7.85;6.30;;;2.20;99.90;;;;;;6281005;22;20019;-76
2023/01/22 11:51:49;;;;;;;7.60;5.70;;;2.50;99.90;;;;;;6253645;22;20316;-75
2023/01/22 11:54:21;;;;;;;11.05;6.03;;;2.20;99.90;;;;;;6255178;22;20015;-75
2023/01/22 11:57:08;;;;;;;7.40;5.80;;;3.40;99.90;;;;;;6254398;22;20080;-74
2023/01/22 11:59:40;;;;;;;11.45;6.10;;;2.30;99.90;;;;;;6280289;22;20007;-74
2023/01/22 12:02:14;;;;;;;10.20;5.70;;;2.30;99.90;;;;;;6255320;22;20049;-76
2023/01/22 12:04:51;;;;;;;12.95;6.22;;;2.40;99.90;;;;;;6258488;22;20033;-77
2023/01/22 12:07:56;;;;;;;8.73;5.53;;;2.30;99.90;;;;;;6257473;22;20085;-73
2023/01/22 12:10:45;;;;;;;9.52;6.30;;;2.30;99.90;;;;;;6282674;22;20026;-75
2023/01/22 12:13:20;;;;;;;10.60;5.82;;;2.40;99.90;;;;;;6276563;22;20314;-75
2023/01/22 12:16:03;;;;;;;;;;;3.10;99.90;;;;;;6282092;22;20082;-74
2023/01/22 12:18:32;;;;;;;7.45;5.38;;;2.50;99.90;;;;;;6281594;22;19915;-75
2023/01/22 12:20:58;;;;;;;10.32;5.18;;;3.00;99.90;;;;;;6306719;22;20015;-74
2023/01/22 12:24:05;;;;;;;7.75;5.93;;;2.70;99.90;;;;;;6279720;22;20083;-74
2023/01/22 12:26:34;;;;;;;7.30;5.63;;;2.40;99.90;;;;;;6308683;22;20038;-74
2023/01/22 12:29:09;;;;;;;8.45;5.50;;;2.40;99.90;;;;;;6282768;22;20190;-73
2023/01/22 12:31:41;;;;;;;5.63;3.85;;;2.40;99.90;;;;;;6282695;22;20484;-73
2023/01/22 12:34:24;;;;;;;8.15;4.95;;;2.50;99.90;;;;;;6283425;22;20041;-73
2023/01/22 12:36:51;;;;;;;8.50;5.47;;;2.90;99.90;;;;;;6284735;22;20487;-73
2023/01/22 12:39:42;;;;;;;6.82;4.75;;;2.60;99.90;;;;;;6283481;22;20064;-74
2023/01/22 12:42:36;;;;;;;8.65;5.30;;;2.50;99.90;;;;;;6285114;22;20021;-74
2023/01/22 12:45:24;;;;;;;9.75;5.28;;;2.50;99.90;;;;;;6308724;22;20021;-75
2023/01/22 12:47:57;;;;;;;11.25;5.32;;;2.50;99.90;;;;;;6280121;22;20007;-75
2023/01/22 12:50:26;;;;;;;9.85;5.65;;;3.20;99.90;;;;;;6285068;22;20300;-75
2023/01/22 12:53:03;;;;;;;9.52;6.32;;;3.00;99.90;;;;;;6258556;22;20171;-76
2023/01/22 12:59:56;;;;;;;8.30;5.60;;;2.20;99.90;;;;;;6186807;23;20071;-76
2023/01/22 13:02:35;;;;;;;9.05;5.72;;;2.50;99.90;;;;;;6161518;23;20005;-76
2023/01/22 13:05:39;;;;;;;8.18;5.10;;;4.40;99.90;;;;;;6281545;22;20070;-77
2023/01/22 13:08:20;;;;;;;10.05;5.68;;;2.80;99.90;;;;;;6284849;22;20325;-77
2023/01/22 13:11:25;;;;;;;9.77;6.35;;;2.50;99.90;;;;;;6308846;22;20015;-74
2023/01/22 13:14:14;;;;;;;9.32;5.47;;;2.50;99.90;;;;;;6299024;22;20071;-76
2023/01/22 13:16:48;;;;;;;11.38;6.32;;;4.60;99.90;;;;;;6284960;22;20015;-75
2023/01/22 13:19:31;;;;;;;11.13;6.00;;;2.70;99.90;;;;;;6283260;22;20018;-77
2023/01/22 13:22:01;;;;;;;8.60;5.50;;;3.40;99.90;;;;;;6282749;22;20320;-75
2023/01/22 13:24:27;;;;;;;11.10;6.10;;;2.60;99.90;;;;;;6309948;22;20290;-74
2023/01/22 13:26:59;;;;;;;10.00;6.43;;;2.60;99.90;;;;;;6309849;22;20011;-75
2023/01/22 13:29:36;;;;;;;8.43;4.80;;;3.50;99.90;;;;;;6309611;22;20018;-74
2023/01/22 13:32:20;;;;;;;9.25;6.03;;;2.30;99.90;;;;;;6282707;22;20011;-74
2023/01/22 13:35:10;;;;;;;10.45;5.63;;;2.60;99.90;;;;;;6284960;22;20052;-74
2023/01/22 13:37:37;;;;;;;10.43;6.30;;;2.60;99.90;;;;;;6307546;22;20119;-75
2023/01/22 13:40:20;;;;;;;9.52;5.72;;;2.50;99.90;;;;;;6308325;22;20018;-75
2023/01/22 13:42:46;;;;;;;9.50;5.57;;;2.60;99.90;;;;;;6308556;22;20076;-75